createdAt,value
2022-10-23T00:01:34.812Z,15.18
2022-10-23T00:04:04.000Z,15.23
2022-10-23T00:06:32.806Z,15.04
2022-10-23T00:08:59.857Z,14.78
2022-10-23T00:11:28.398Z,14.53
2022-10-23T00:13:56.471Z,14.35
2022-10-23T00:16:25.044Z,14.20
2022-10-23T00:18:55.792Z,14.80
2022-10-23T00:21:23.630Z,15.43
2022-10-23T00:23:50.702Z,15.52
2022-10-23T00:26:17.902Z,15.34
2022-10-23T00:28:48.904Z,15.10
2022-10-23T00:31:15.961Z,14.85
2022-10-23T00:33:46.048Z,14.62
2022-10-23T00:36:14.358Z,14.43
2022-10-23T00:38:44.098Z,14.98
2022-10-23T00:41:17.874Z,15.53
2022-10-23T00:43:59.381Z,15.62
2022-10-23T00:46:26.554Z,15.40
2022-10-23T00:48:53.562Z,15.11
2022-10-23T00:51:20.663Z,14.86
2022-10-23T00:54:00.985Z,14.61
2022-10-23T00:56:37.355Z,15.20
2022-10-23T00:59:04.893Z,15.71
2022-10-23T01:01:32.590Z,15.73
2022-10-23T01:04:01.427Z,15.55
2022-10-23T01:06:36.280Z,15.29
2022-10-23T01:09:14.598Z,15.04
2022-10-23T01:11:45.969Z,14.81
2022-10-23T01:14:23.717Z,14.61
2022-10-23T01:17:12.914Z,15.22
2022-10-23T01:20:05.319Z,15.84
2022-10-23T01:22:49.915Z,15.81
2022-10-23T01:25:30.029Z,15.53
2022-10-23T01:28:05.074Z,15.25
2022-10-23T01:30:33.351Z,15.01
2022-10-23T01:33:10.023Z,14.78
2022-10-23T01:35:53.222Z,15.36
2022-10-23T01:38:25.348Z,15.87
2022-10-23T01:41:03.030Z,15.86
2022-10-23T01:43:42.752Z,15.63
2022-10-23T01:46:11.271Z,15.33
2022-10-23T01:48:40.164Z,15.04
2022-10-23T01:51:08.426Z,14.79
2022-10-23T01:53:38.604Z,14.58
2022-10-23T01:56:09.151Z,15.11
2022-10-23T01:58:36.171Z,15.67
2022-10-23T02:01:04.045Z,15.72
2022-10-23T02:03:34.259Z,15.55
2022-10-23T02:06:01.242Z,15.32
2022-10-23T02:08:28.409Z,15.07
2022-10-23T02:11:04.382Z,14.83
2022-10-23T02:13:38.552Z,15.30
2022-10-23T02:16:35.897Z,15.85
2022-10-23T02:19:35.344Z,15.80
2022-10-23T02:22:16.756Z,15.48
2022-10-23T02:24:49.538Z,15.21
2022-10-23T02:27:24.520Z,14.93
2022-10-23T02:29:55.610Z,15.43
2022-10-23T02:32:23.060Z,15.94
2022-10-23T02:34:50.243Z,15.91
2022-10-23T02:37:17.201Z,15.67
2022-10-23T02:39:44.253Z,15.38
2022-10-23T02:42:22.792Z,15.07
2022-10-23T02:45:15.870Z,14.81
2022-10-23T02:47:51.226Z,15.48
2022-10-23T02:50:26.959Z,15.94
2022-10-23T02:53:16.062Z,15.85
2022-10-23T02:55:45.896Z,15.51
2022-10-23T02:58:12.982Z,15.23
2022-10-23T03:00:49.389Z,14.95
2022-10-23T03:03:22.765Z,15.33
2022-10-23T03:05:49.879Z,15.78
2022-10-23T03:08:17.146Z,15.80
2022-10-23T03:10:44.285Z,15.60
2022-10-23T03:13:11.888Z,15.33
2022-10-23T03:15:44.899Z,15.06
2022-10-23T03:18:16.723Z,14.82
2022-10-23T03:20:50.112Z,15.31
2022-10-23T03:23:18.299Z,15.83
2022-10-23T03:25:45.257Z,15.86
2022-10-23T03:28:23.595Z,15.65
2022-10-23T03:30:51.078Z,15.38
2022-10-23T03:33:18.333Z,15.12
2022-10-23T03:35:45.902Z,14.88
2022-10-23T03:38:14.665Z,15.38
2022-10-23T03:40:42.460Z,15.89
2022-10-23T03:43:12.402Z,15.90
2022-10-23T03:45:39.604Z,15.67
2022-10-23T03:48:06.931Z,15.40
2022-10-23T03:50:35.090Z,15.12
2022-10-23T03:53:03.566Z,14.84
2022-10-23T03:55:31.917Z,15.30
2022-10-23T03:57:59.309Z,15.85
2022-10-23T04:00:26.446Z,15.89
2022-10-23T04:02:54.836Z,15.70
2022-10-23T04:05:22.075Z,15.45
2022-10-23T04:07:57.041Z,15.17
2022-10-23T04:10:27.734Z,14.94
2022-10-23T04:12:56.994Z,15.42
2022-10-23T04:15:23.994Z,15.96
2022-10-23T04:17:51.428Z,16.01
2022-10-23T04:20:19.733Z,15.83
2022-10-23T04:22:47.639Z,15.55
2022-10-23T04:25:14.943Z,15.28
2022-10-23T04:27:42.977Z,15.02
2022-10-23T04:30:11.074Z,15.50
2022-10-23T04:32:38.808Z,16.04
2022-10-23T04:35:06.729Z,16.07
2022-10-23T04:37:33.972Z,15.88
2022-10-23T04:40:01.370Z,15.62
2022-10-23T04:42:28.446Z,15.34
2022-10-23T04:44:57.571Z,15.08
2022-10-23T04:47:25.333Z,15.51
2022-10-23T04:49:59.619Z,16.06
2022-10-23T04:52:59.240Z,16.03
2022-10-23T04:55:52.305Z,15.77
2022-10-23T04:58:28.554Z,15.45
2022-10-23T05:00:57.216Z,15.19
2022-10-23T05:03:26.442Z,14.97
2022-10-23T05:05:54.907Z,15.46
2022-10-23T05:08:42.132Z,16.06
2022-10-23T05:11:21.466Z,16.05
2022-10-23T05:13:50.273Z,15.83
2022-10-23T05:16:48.881Z,15.57
2022-10-23T05:19:24.306Z,15.26
2022-10-23T05:21:55.964Z,15.03
2022-10-23T05:24:26.649Z,15.61
2022-10-23T05:27:00.164Z,16.20
2022-10-23T05:29:32.825Z,16.23
2022-10-23T05:32:02.299Z,16.01
2022-10-23T05:34:32.693Z,15.74
2022-10-23T05:37:01.861Z,15.47
2022-10-23T05:39:30.911Z,15.23
2022-10-23T05:42:00.211Z,15.74
2022-10-23T05:44:27.224Z,16.31
2022-10-23T05:47:08.466Z,16.34
2022-10-23T05:50:15.032Z,16.01
2022-10-23T05:53:11.638Z,15.67
2022-10-23T05:56:06.990Z,15.40
2022-10-23T05:59:00.411Z,16.14
2022-10-23T06:01:53.723Z,16.55
2022-10-23T06:04:46.916Z,16.37
2022-10-23T06:07:27.708Z,16.07
2022-10-23T06:09:57.265Z,15.80
2022-10-23T06:12:24.724Z,15.52
2022-10-23T06:14:53.353Z,15.95
2022-10-23T06:17:21.492Z,16.47
2022-10-23T06:19:49.021Z,16.49
2022-10-23T06:24:49.610Z,16.00
2022-10-23T06:27:23.478Z,15.72
2022-10-23T06:29:51.180Z,16.15
2022-10-23T06:32:20.918Z,16.66
2022-10-23T06:34:59.623Z,16.67
2022-10-23T06:37:26.788Z,16.45
2022-10-23T06:40:20.469Z,16.13
2022-10-23T06:43:06.212Z,15.85
2022-10-23T06:45:43.548Z,15.65
2022-10-23T06:48:13.672Z,16.23
2022-10-23T06:50:46.564Z,16.80
2022-10-23T06:53:20.001Z,16.81
2022-10-23T06:55:54.583Z,16.60
2022-10-23T06:58:22.605Z,16.34
2022-10-23T07:01:04.519Z,16.08
2022-10-23T07:03:31.757Z,15.88
2022-10-23T07:06:03.556Z,16.44
2022-10-23T07:08:33.021Z,17.07
2022-10-23T07:11:07.831Z,17.12
2022-10-23T07:13:35.587Z,16.96
2022-10-23T07:16:20.251Z,16.70
2022-10-23T07:18:49.765Z,16.47
2022-10-23T07:21:37.493Z,16.27
2022-10-23T07:24:17.638Z,16.94
2022-10-23T07:26:45.109Z,17.45
2022-10-23T07:29:12.797Z,17.48
2022-10-23T07:31:40.109Z,17.29
2022-10-23T07:34:25.408Z,17.09
2022-10-23T07:37:06.545Z,16.92
2022-10-23T07:39:35.304Z,16.75
2022-10-23T07:42:05.747Z,17.27
2022-10-23T07:44:33.061Z,17.85
2022-10-23T07:47:01.283Z,17.91
2022-10-23T07:49:28.458Z,17.75
2022-10-23T07:51:58.953Z,17.49
2022-10-23T07:54:30.443Z,17.25
2022-10-23T07:57:00.641Z,17.04
2022-10-23T07:59:38.754Z,16.98
2022-10-23T08:02:11.623Z,18.22
2022-10-23T08:04:38.935Z,19.23
2022-10-23T08:07:32.980Z,19.47
2022-10-23T08:10:03.401Z,19.38
2022-10-23T08:12:31.223Z,19.15
2022-10-23T08:14:58.351Z,19.00
2022-10-23T08:17:29.143Z,19.03
2022-10-23T08:20:16.460Z,19.06
2022-10-23T08:22:45.489Z,19.04
2022-10-23T08:25:15.828Z,19.03
2022-10-23T08:27:44.531Z,18.99
2022-10-23T08:30:13.720Z,18.86
2022-10-23T08:32:41.001Z,18.69
2022-10-23T08:35:08.827Z,19.19
2022-10-23T08:37:38.065Z,19.80
2022-10-23T08:40:05.540Z,19.88
2022-10-23T08:43:10.795Z,19.66
2022-10-23T08:46:07.334Z,19.42
2022-10-23T08:49:28.454Z,19.11
2022-10-23T08:52:00.735Z,18.94
2022-10-23T08:54:48.954Z,18.88
2022-10-23T08:57:16.846Z,19.01
2022-10-23T08:59:55.420Z,19.17
2022-10-23T09:02:32.952Z,19.37
2022-10-23T09:05:00.044Z,19.56
2022-10-23T09:07:34.683Z,19.73
2022-10-23T09:10:27.603Z,20.10
2022-10-23T09:13:31.002Z,20.53
2022-10-23T09:16:04.493Z,21.12
2022-10-23T09:18:31.637Z,21.63
2022-10-23T09:20:58.789Z,22.12
2022-10-23T09:23:26.372Z,22.64
2022-10-23T09:25:57.114Z,23.12
2022-10-23T09:28:27.350Z,23.25
2022-10-23T09:31:12.135Z,23.08
2022-10-23T09:33:39.338Z,22.82
2022-10-23T09:36:08.212Z,22.58
2022-10-23T09:38:47.392Z,22.58
2022-10-23T09:41:18.659Z,22.51
2022-10-23T09:43:46.057Z,22.87
2022-10-23T09:46:13.202Z,23.37
2022-10-23T09:48:44.401Z,23.86
2022-10-23T09:51:21.183Z,23.99
2022-10-23T09:53:56.708Z,23.81
2022-10-23T09:56:30.742Z,23.48
2022-10-23T09:59:01.575Z,23.15
2022-10-23T10:01:36.437Z,22.74
2022-10-23T10:04:41.668Z,22.09
2022-10-23T10:07:25.570Z,21.57
2022-10-23T10:09:53.594Z,21.13
2022-10-23T10:12:35.841Z,20.79
2022-10-23T10:15:09.230Z,20.46
2022-10-23T10:17:59.502Z,20.12
2022-10-23T10:20:54.316Z,19.78
2022-10-23T10:23:40.135Z,19.53
2022-10-23T10:26:13.563Z,19.35
2022-10-23T10:29:02.903Z,19.19
2022-10-23T10:31:36.459Z,19.00
2022-10-23T10:34:14.907Z,18.84
2022-10-23T10:36:51.271Z,18.64
2022-10-23T10:39:28.361Z,18.45
2022-10-23T10:41:58.459Z,18.29
2022-10-23T10:44:35.278Z,18.17
2022-10-23T10:47:16.006Z,18.72
2022-10-23T10:49:55.611Z,19.45
2022-10-23T10:52:39.354Z,19.58
2022-10-23T10:55:12.706Z,19.52
2022-10-23T10:57:48.875Z,19.35
2022-10-23T11:00:17.895Z,19.14
2022-10-23T11:02:53.178Z,19.00
2022-10-23T11:05:35.545Z,18.89
2022-10-23T11:08:40.195Z,18.79
2022-10-23T11:11:32.353Z,18.68
2022-10-23T11:13:59.312Z,18.55
2022-10-23T11:16:36.302Z,18.46
2022-10-23T11:19:18.549Z,18.41
2022-10-23T11:22:10.260Z,18.41
2022-10-23T11:24:58.773Z,18.50
2022-10-23T11:27:31.698Z,19.57
2022-10-23T11:30:10.990Z,20.58
2022-10-23T11:33:01.283Z,21.30
2022-10-23T11:35:53.552Z,21.29
2022-10-23T11:38:37.319Z,21.10
2022-10-23T11:41:26.792Z,21.16
2022-10-23T11:44:05.237Z,21.04
2022-10-23T11:46:35.399Z,20.93
2022-10-23T11:49:06.125Z,21.26
2022-10-23T11:51:40.858Z,21.64
2022-10-23T11:54:11.251Z,21.77
2022-10-23T11:56:38.805Z,21.62
2022-10-23T11:59:28.494Z,21.36
2022-10-23T12:01:57.064Z,20.97
2022-10-23T12:04:27.166Z,20.63
2022-10-23T12:06:56.455Z,20.36
2022-10-23T12:09:51.944Z,20.14
2022-10-23T12:12:29.209Z,19.96
2022-10-23T12:15:15.933Z,19.84
2022-10-23T12:17:44.000Z,19.70
2022-10-23T12:20:12.313Z,19.59
2022-10-23T12:23:11.059Z,19.43
2022-10-23T12:26:02.169Z,19.40
2022-10-23T12:28:44.479Z,19.45
2022-10-23T12:31:21.551Z,19.47
2022-10-23T12:34:01.772Z,19.48
2022-10-23T12:36:59.474Z,19.46
2022-10-23T12:39:33.831Z,19.36
2022-10-23T12:42:01.313Z,19.26
2022-10-23T12:44:28.676Z,19.22
2022-10-23T12:46:58.172Z,19.22
2022-10-23T12:49:27.962Z,19.21
2022-10-23T12:51:57.170Z,19.18
2022-10-23T12:54:24.382Z,19.19
2022-10-23T12:56:52.047Z,19.38
2022-10-23T12:59:38.271Z,19.82
2022-10-23T13:02:35.050Z,20.24
2022-10-23T13:05:05.745Z,20.29
2022-10-23T13:07:35.831Z,20.14
2022-10-23T13:10:04.839Z,20.01
2022-10-23T13:12:40.982Z,19.87
2022-10-23T13:15:07.995Z,19.78
2022-10-23T13:17:38.977Z,19.80
2022-10-23T13:20:35.371Z,19.90
2022-10-23T13:23:10.181Z,19.87
2022-10-23T13:25:38.648Z,19.80
2022-10-23T13:28:11.969Z,19.74
2022-10-23T13:30:42.798Z,19.71
2022-10-23T13:33:24.352Z,19.72
2022-10-23T13:36:23.902Z,19.80
2022-10-23T13:39:02.834Z,19.76
2022-10-23T13:41:35.800Z,19.67
2022-10-23T13:44:05.860Z,19.61
2022-10-23T13:46:33.440Z,19.56
2022-10-23T13:49:00.364Z,19.53
2022-10-23T13:51:28.405Z,19.49
2022-10-23T13:53:56.115Z,19.41
2022-10-23T13:56:25.304Z,19.32
2022-10-23T13:58:52.961Z,19.21
2022-10-23T14:01:23.564Z,19.10
2022-10-23T14:03:51.431Z,18.98
2022-10-23T14:06:18.721Z,18.85
2022-10-23T14:08:45.825Z,18.74
2022-10-23T14:11:17.534Z,18.60
2022-10-23T14:13:44.825Z,18.49
2022-10-23T14:16:12.822Z,18.38
2022-10-23T14:18:39.941Z,18.26
2022-10-23T14:21:09.044Z,18.13
2022-10-23T14:23:36.858Z,18.05
2022-10-23T14:26:12.221Z,17.97
2022-10-23T14:28:39.726Z,17.89
2022-10-23T14:31:11.473Z,17.79
2022-10-23T14:33:38.882Z,17.65
2022-10-23T14:36:06.375Z,17.55
2022-10-23T14:38:33.795Z,17.45
2022-10-23T14:41:01.056Z,17.37
2022-10-23T14:43:28.039Z,17.29
2022-10-23T14:45:55.075Z,17.21
2022-10-23T14:48:22.321Z,17.13
2022-10-23T14:50:49.496Z,17.04
2022-10-23T14:53:16.691Z,16.94
2022-10-23T14:55:45.233Z,16.83
2022-10-23T14:58:12.326Z,16.72
2022-10-23T15:00:43.369Z,16.64
2022-10-23T15:03:10.557Z,16.55
2022-10-23T15:05:41.626Z,17.08
2022-10-23T15:08:08.678Z,17.68
2022-10-23T15:10:37.329Z,17.74
2022-10-23T15:13:04.881Z,17.56
2022-10-23T15:15:31.817Z,17.30
2022-10-23T15:18:00.410Z,17.03
2022-10-23T15:20:27.461Z,16.73
2022-10-23T15:22:54.480Z,16.40
2022-10-23T15:25:22.008Z,16.07
2022-10-23T15:27:49.220Z,15.79
2022-10-23T15:30:16.696Z,15.55
2022-10-23T15:32:44.550Z,15.93
2022-10-23T15:35:11.804Z,16.46
2022-10-23T15:37:38.858Z,16.50
2022-10-23T15:40:06.717Z,16.25
2022-10-23T15:42:33.674Z,15.94
2022-10-23T15:45:00.780Z,15.61
2022-10-23T15:47:27.837Z,15.32
2022-10-23T15:49:55.409Z,15.07
2022-10-23T15:52:22.866Z,14.86
2022-10-23T15:54:54.538Z,15.30
2022-10-23T15:57:21.505Z,15.76
2022-10-23T15:59:48.531Z,15.73
2022-10-23T16:02:15.783Z,15.49
2022-10-23T16:04:43.343Z,15.20
2022-10-23T16:07:10.577Z,14.90
2022-10-23T16:09:40.041Z,14.64
2022-10-23T16:12:07.407Z,14.43
2022-10-23T16:14:34.364Z,14.19
2022-10-23T16:17:02.141Z,14.59
2022-10-23T16:19:29.311Z,15.10
2022-10-23T16:21:56.472Z,15.07
2022-10-23T16:24:23.417Z,14.82
2022-10-23T16:26:53.392Z,14.52
2022-10-23T16:29:22.194Z,14.19
2022-10-23T16:31:49.564Z,13.89
2022-10-23T16:34:16.686Z,13.64
2022-10-23T16:36:45.096Z,13.40
2022-10-23T16:39:25.014Z,13.96
2022-10-23T16:42:10.635Z,14.50
2022-10-23T16:45:04.422Z,14.42
2022-10-23T16:47:31.580Z,14.19
2022-10-23T16:49:58.785Z,13.91
2022-10-23T16:52:26.320Z,13.61
2022-10-23T16:54:53.436Z,13.33
2022-10-23T16:57:20.617Z,13.08
2022-10-23T16:59:47.565Z,13.54
2022-10-23T17:02:15.002Z,14.08
2022-10-23T17:04:44.208Z,14.10
2022-10-23T17:07:13.279Z,13.86
2022-10-23T17:09:43.686Z,13.58
2022-10-23T17:12:10.599Z,13.30
2022-10-23T17:14:38.770Z,13.04
2022-10-23T17:17:06.998Z,12.83
2022-10-23T17:19:45.469Z,13.34
2022-10-23T17:22:13.943Z,13.94
2022-10-23T17:24:42.051Z,13.98
2022-10-23T17:27:09.169Z,13.80
2022-10-23T17:29:36.265Z,13.56
2022-10-23T17:32:03.577Z,13.30
2022-10-23T17:34:31.035Z,13.08
2022-10-23T17:36:59.368Z,13.55
2022-10-23T17:39:27.511Z,14.11
2022-10-23T17:41:54.694Z,14.18
2022-10-23T17:44:22.116Z,13.99
2022-10-23T17:46:54.795Z,13.72
2022-10-23T17:49:22.697Z,13.44
2022-10-23T17:51:54.356Z,13.17
2022-10-23T17:54:21.624Z,13.54
2022-10-23T17:56:49.492Z,14.03
2022-10-23T17:59:19.780Z,14.07
2022-10-23T18:01:48.370Z,13.88
2022-10-23T18:04:17.664Z,13.61
2022-10-23T18:06:49.352Z,13.35
2022-10-23T18:09:16.792Z,13.11
2022-10-23T18:11:48.583Z,13.60
2022-10-23T18:14:17.880Z,14.13
2022-10-23T18:16:45.889Z,14.09
2022-10-23T18:19:14.580Z,13.80
2022-10-23T18:21:41.788Z,13.50
2022-10-23T18:24:08.818Z,13.20
2022-10-23T18:26:37.786Z,12.91
2022-10-23T18:29:07.571Z,13.23
2022-10-23T18:31:37.404Z,13.70
2022-10-23T18:34:07.726Z,13.65
2022-10-23T18:36:37.681Z,13.39
2022-10-23T18:39:06.993Z,13.05
2022-10-23T18:41:39.745Z,12.69
2022-10-23T18:44:06.723Z,12.32
2022-10-23T18:46:34.379Z,12.68
2022-10-23T18:49:01.468Z,13.17
2022-10-23T18:51:30.775Z,13.19
2022-10-23T18:54:00.392Z,12.96
2022-10-23T18:56:28.071Z,12.64
2022-10-23T18:58:57.863Z,12.32
2022-10-23T19:01:25.343Z,12.03
2022-10-23T19:03:52.972Z,12.47
2022-10-23T19:06:20.681Z,13.03
2022-10-23T19:08:50.364Z,13.07
2022-10-23T19:11:18.944Z,12.87
2022-10-23T19:13:45.960Z,12.59
2022-10-23T19:16:18.283Z,12.27
2022-10-23T19:18:47.171Z,12.00
2022-10-23T19:21:15.313Z,12.44
2022-10-23T19:23:43.173Z,12.97
2022-10-23T19:26:12.075Z,12.98
2022-10-23T19:28:44.217Z,12.75
2022-10-23T19:31:11.776Z,12.43
2022-10-23T19:33:39.075Z,12.10
2022-10-23T19:36:08.855Z,11.79
2022-10-23T19:38:40.352Z,12.18
2022-10-23T19:41:07.693Z,12.65
2022-10-23T19:43:35.028Z,12.63
2022-10-23T19:46:06.518Z,12.37
2022-10-23T19:48:37.961Z,12.06
2022-10-23T19:51:07.648Z,11.76
2022-10-23T19:53:35.844Z,11.50
2022-10-23T19:56:04.427Z,11.94
2022-10-23T19:58:31.488Z,12.46
2022-10-23T20:00:58.554Z,12.44
2022-10-23T20:03:26.974Z,12.17
2022-10-23T20:05:54.294Z,11.85
2022-10-23T20:08:21.221Z,11.55
2022-10-23T20:10:50.596Z,11.28
2022-10-23T20:13:20.242Z,11.71
2022-10-23T20:15:49.736Z,12.23
2022-10-23T20:18:17.256Z,12.22
2022-10-23T20:20:44.165Z,11.99
2022-10-23T20:23:11.899Z,11.69
2022-10-23T20:25:38.899Z,11.39
2022-10-23T20:28:08.194Z,11.10
2022-10-23T20:30:41.535Z,10.84
2022-10-23T20:33:08.689Z,11.38
2022-10-23T20:35:40.519Z,11.94
2022-10-23T20:38:08.152Z,11.97
2022-10-23T20:40:35.418Z,11.76
2022-10-23T20:43:02.556Z,11.51
2022-10-23T20:45:29.695Z,11.26
2022-10-23T20:47:56.919Z,11.00
2022-10-23T20:50:23.967Z,11.45
2022-10-23T20:52:51.418Z,12.02
2022-10-23T20:55:18.960Z,12.05
2022-10-23T20:57:46.271Z,11.79
2022-10-23T21:00:14.041Z,11.44
2022-10-23T21:02:41.511Z,11.06
2022-10-23T21:05:09.212Z,11.33
2022-10-23T21:07:36.409Z,11.76
2022-10-23T21:10:04.312Z,11.75
2022-10-23T21:12:35.331Z,11.46
2022-10-23T21:15:02.342Z,11.15
2022-10-23T21:17:35.800Z,10.86
2022-10-23T21:20:03.510Z,11.24
2022-10-23T21:22:31.954Z,11.68
2022-10-23T21:25:00.221Z,11.61
2022-10-23T21:27:27.462Z,11.30
2022-10-23T21:29:54.747Z,10.94
2022-10-23T21:32:21.767Z,10.57
2022-10-23T21:34:48.762Z,10.24
2022-10-23T21:37:15.791Z,10.59
2022-10-23T21:39:43.324Z,11.06
2022-10-23T21:42:11.349Z,10.98
2022-10-23T21:44:38.415Z,10.64
2022-10-23T21:47:05.549Z,10.23
2022-10-23T21:49:33.541Z,9.85
2022-10-23T21:52:00.506Z,9.53
2022-10-23T21:54:27.715Z,9.93
2022-10-23T21:56:54.914Z,10.43
2022-10-23T21:59:25.910Z,10.45
2022-10-23T22:01:55.302Z,10.18
2022-10-23T22:04:22.457Z,9.88
2022-10-23T22:06:53.338Z,9.60
2022-10-23T22:09:22.284Z,10.00
2022-10-23T22:11:52.851Z,10.53
2022-10-23T22:14:20.044Z,10.55
2022-10-23T22:16:47.693Z,10.33
2022-10-23T22:19:15.380Z,10.05
2022-10-23T22:21:44.588Z,9.74
2022-10-23T22:24:11.894Z,9.47
2022-10-23T22:26:40.635Z,9.91
2022-10-23T22:29:12.472Z,10.49
2022-10-23T22:31:44.129Z,10.53
2022-10-23T22:34:51.465Z,10.29
2022-10-23T22:37:14.173Z,9.93
2022-10-23T22:39:41.972Z,9.66
2022-10-23T22:42:08.985Z,10.05
2022-10-23T22:44:35.969Z,10.62
2022-10-23T22:47:06.332Z,10.71
2022-10-23T22:49:34.131Z,10.55
2022-10-23T22:52:02.071Z,10.35
2022-10-23T22:54:31.408Z,10.14
2022-10-23T22:57:00.654Z,9.92
2022-10-23T22:59:27.653Z,10.39
2022-10-23T23:01:54.964Z,10.96
2022-10-23T23:04:38.958Z,11.02
2022-10-23T23:07:10.995Z,10.77
2022-10-23T23:09:42.866Z,10.45
2022-10-23T23:12:12.409Z,10.12
2022-10-23T23:14:39.514Z,9.80
2022-10-23T23:17:07.127Z,10.17
2022-10-23T23:19:34.709Z,10.68
2022-10-23T23:22:01.914Z,10.70
2022-10-23T23:24:29.052Z,10.50
2022-10-23T23:26:55.986Z,10.21
2022-10-23T23:29:23.011Z,9.92
2022-10-23T23:31:50.246Z,9.62
2022-10-23T23:34:17.179Z,9.98
2022-10-23T23:36:45.694Z,10.45
2022-10-23T23:39:12.759Z,10.36
2022-10-23T23:41:39.704Z,10.06
2022-10-23T23:44:08.459Z,9.69
2022-10-23T23:46:35.375Z,9.34
2022-10-23T23:49:02.956Z,9.02
2022-10-23T23:51:29.890Z,9.40
2022-10-23T23:53:56.798Z,9.88
2022-10-23T23:56:23.927Z,9.83
2022-10-23T23:58:50.824Z,9.57
